sensor_id;sensor_type;location;lat;lon;timestamp;pressure;altitude;pressure_sealevel;temperature;humidity
59825;BME280;45703;50.898;6.054;2023-08-07T00:00:23;100003.69;;;12.58;100.00
59825;BME280;45703;50.898;6.054;2023-08-07T00:02:49;100000.44;;;12.56;100.00
59825;BME280;45703;50.898;6.054;2023-08-07T00:05:17;100019.38;;;12.66;100.00
59825;BME280;45703;50.898;6.054;2023-08-07T00:07:43;100014.50;;;12.63;100.00
59825;BME280;45703;50.898;6.054;2023-08-07T00:10:09;100010.28;;;12.67;100.00
59825;BME280;45703;50.898;6.054;2023-08-07T00:12:35;100006.47;;;12.63;100.00
59825;BME280;45703;50.898;6.054;2023-08-07T00:15:01;100002.97;;;12.63;100.00
59825;BME280;45703;50.898;6.054;2023-08-07T00:17:26;100014.59;;;12.68;100.00
59825;BME280;45703;50.898;6.054;2023-08-07T00:19:52;100020.16;;;12.67;100.00
59825;BME280;45703;50.898;6.054;2023-08-07T00:22:17;100010.19;;;12.62;100.00
59825;BME280;45703;50.898;6.054;2023-08-07T00:24:45;100012.47;;;12.70;100.00
59825;BME280;45703;50.898;6.054;2023-08-07T00:27:10;99999.56;;;12.67;100.00
59825;BME280;45703;50.898;6.054;2023-08-07T00:29:37;100005.25;;;12.71;100.00
59825;BME280;45703;50.898;6.054;2023-08-07T00:32:03;99993.56;;;12.60;100.00
59825;BME280;45703;50.898;6.054;2023-08-07T00:34:29;100010.28;;;12.67;100.00
59825;BME280;45703;50.898;6.054;2023-08-07T00:36:54;100001.69;;;12.65;100.00
59825;BME280;45703;50.898;6.054;2023-08-07T00:39:20;99997.28;;;12.59;100.00
59825;BME280;45703;50.898;6.054;2023-08-07T00:41:46;100017.28;;;12.68;100.00
59825;BME280;45703;50.898;6.054;2023-08-07T00:44:11;100012.63;;;12.64;100.00
59825;BME280;45703;50.898;6.054;2023-08-07T00:46:37;100009.13;;;12.63;100.00
59825;BME280;45703;50.898;6.054;2023-08-07T00:49:05;100002.00;;;12.69;100.00
59825;BME280;45703;50.898;6.054;2023-08-07T00:51:31;100021.00;;;12.67;100.00
59825;BME280;45703;50.898;6.054;2023-08-07T00:53:57;100009.47;;;12.67;100.00
59825;BME280;45703;50.898;6.054;2023-08-07T00:56:23;100014.59;;;12.68;100.00
59825;BME280;45703;50.898;6.054;2023-08-07T00:58:49;100010.75;;;12.64;100.00
59825;BME280;45703;50.898;6.054;2023-08-07T01:01:15;100018.31;;;12.67;100.00
59825;BME280;45703;50.898;6.054;2023-08-07T01:03:41;100020.75;;;12.69;100.00
59825;BME280;45703;50.898;6.054;2023-08-07T01:06:06;100012.97;;;12.67;100.00
59825;BME280;45703;50.898;6.054;2023-08-07T01:08:32;100022.94;;;12.72;100.00
59825;BME280;45703;50.898;6.054;2023-08-07T01:11:12;100021.31;;;12.71;100.00
59825;BME280;45703;50.898;6.054;2023-08-07T01:13:59;100020.25;;;12.72;100.00
59825;BME280;45703;50.898;6.054;2023-08-07T01:16:35;100029.47;;;12.76;100.00
59825;BME280;45703;50.898;6.054;2023-08-07T01:19:02;100018.50;;;12.77;100.00
59825;BME280;45703;50.898;6.054;2023-08-07T01:21:29;100018.63;;;12.71;100.00
59825;BME280;45703;50.898;6.054;2023-08-07T01:23:57;100021.88;;;12.73;100.00
59825;BME280;45703;50.898;6.054;2023-08-07T01:26:22;100030.28;;;12.76;100.00
59825;BME280;45703;50.898;6.054;2023-08-07T01:29:26;100020.94;;;12.79;100.00
59825;BME280;45703;50.898;6.054;2023-08-07T01:31:54;100030.28;;;12.76;100.00
59825;BME280;45703;50.898;6.054;2023-08-07T01:34:22;100034.00;;;12.75;100.00
59825;BME280;45703;50.898;6.054;2023-08-07T01:36:50;100034.56;;;12.77;100.00
59825;BME280;45703;50.898;6.054;2023-08-07T01:39:17;100036.44;;;12.77;100.00
59825;BME280;45703;50.898;6.054;2023-08-07T01:41:44;100040.19;;;12.76;100.00
59825;BME280;45703;50.898;6.054;2023-08-07T01:44:10;100040.63;;;12.73;100.00
59825;BME280;45703;50.898;6.054;2023-08-07T01:46:36;100038.78;;;12.73;100.00
59825;BME280;45703;50.898;6.054;2023-08-07T01:49:01;100039.84;;;12.72;100.00
59825;BME280;45703;50.898;6.054;2023-08-07T01:51:26;100044.38;;;12.72;100.00
59825;BME280;45703;50.898;6.054;2023-08-07T01:53:52;100029.13;;;12.72;100.00
59825;BME280;45703;50.898;6.054;2023-08-07T01:56:18;100039.25;;;12.70;100.00
59825;BME280;45703;50.898;6.054;2023-08-07T01:58:43;100037.16;;;12.72;100.00
59825;BME280;45703;50.898;6.054;2023-08-07T02:01:11;100036.69;;;12.75;100.00
59825;BME280;45703;50.898;6.054;2023-08-07T02:03:36;100038.78;;;12.73;100.00
59825;BME280;45703;50.898;6.054;2023-08-07T02:06:01;100037.72;;;12.74;100.00
59825;BME280;45703;50.898;6.054;2023-08-07T02:08:27;100025.78;;;12.65;100.00
59825;BME280;45703;50.898;6.054;2023-08-07T02:10:53;100036.59;;;12.70;100.00
59825;BME280;45703;50.898;6.054;2023-08-07T02:13:18;100040.22;;;12.64;100.00
59825;BME280;45703;50.898;6.054;2023-08-07T02:15:46;100033.81;;;12.65;100.00
59825;BME280;45703;50.898;6.054;2023-08-07T02:18:11;100054.84;;;12.73;100.00
59825;BME280;45703;50.898;6.054;2023-08-07T02:20:37;100044.44;;;12.60;100.00
59825;BME280;45703;50.898;6.054;2023-08-07T02:23:02;100050.22;;;12.69;100.00
59825;BME280;45703;50.898;6.054;2023-08-07T02:25:28;100042.75;;;12.71;100.00
59825;BME280;45703;50.898;6.054;2023-08-07T02:27:55;100045.69;;;12.69;100.00
59825;BME280;45703;50.898;6.054;2023-08-07T02:30:21;100048.94;;;12.71;100.00
59825;BME280;45703;50.898;6.054;2023-08-07T02:32:46;100036.97;;;12.62;100.00
59825;BME280;45703;50.898;6.054;2023-08-07T02:35:12;100057.19;;;12.70;100.00
59825;BME280;45703;50.898;6.054;2023-08-07T02:37:39;100045.22;;;12.61;100.00
59825;BME280;45703;50.898;6.054;2023-08-07T02:40:05;100067.09;;;12.69;100.00
59825;BME280;45703;50.898;6.054;2023-08-07T02:42:38;100053.84;;;12.63;100.00
59825;BME280;45703;50.898;6.054;2023-08-07T02:45:06;100043.19;;;12.51;100.00
59825;BME280;45703;50.898;6.054;2023-08-07T02:47:34;100046.09;;;12.50;100.00
59825;BME280;45703;50.898;6.054;2023-08-07T02:50:02;100049.25;;;12.47;100.00
59825;BME280;45703;50.898;6.054;2023-08-07T02:52:30;100037.72;;;12.46;100.00
59825;BME280;45703;50.898;6.054;2023-08-07T02:55:02;100056.19;;;12.59;100.00
59825;BME280;45703;50.898;6.054;2023-08-07T02:57:28;100050.00;;;12.59;100.00
59825;BME280;45703;50.898;6.054;2023-08-07T02:59:54;100044.25;;;12.50;100.00
59825;BME280;45703;50.898;6.054;2023-08-07T03:02:21;100062.59;;;12.58;100.00
59825;BME280;45703;50.898;6.054;2023-08-07T03:04:49;100060.88;;;12.52;100.00
59825;BME280;45703;50.898;6.054;2023-08-07T03:07:15;100069.13;;;12.51;100.00
59825;BME280;45703;50.898;6.054;2023-08-07T03:09:40;100052.06;;;12.40;100.00
59825;BME280;45703;50.898;6.054;2023-08-07T03:12:06;100054.59;;;12.47;100.00
59825;BME280;45703;50.898;6.054;2023-08-07T03:14:31;100065.53;;;12.45;100.00
59825;BME280;45703;50.898;6.054;2023-08-07T03:16:57;100066.00;;;12.42;100.00
59825;BME280;45703;50.898;6.054;2023-08-07T03:19:22;100064.84;;;12.38;100.00
59825;BME280;45703;50.898;6.054;2023-08-07T03:21:47;100061.97;;;12.40;100.00
59825;BME280;45703;50.898;6.054;2023-08-07T03:24:13;100061.03;;;12.34;100.00
59825;BME280;45703;50.898;6.054;2023-08-07T03:26:38;100062.09;;;12.33;100.00
59825;BME280;45703;50.898;6.054;2023-08-07T03:29:04;100056.72;;;12.33;100.00
59825;BME280;45703;50.898;6.054;2023-08-07T03:31:29;100061.84;;;12.35;100.00
59825;BME280;45703;50.898;6.054;2023-08-07T03:33:55;100041.41;;;12.29;100.00
59825;BME280;45703;50.898;6.054;2023-08-07T03:36:20;100064.28;;;12.36;100.00
59825;BME280;45703;50.898;6.054;2023-08-07T03:38:45;100064.75;;;12.33;100.00
59825;BME280;45703;50.898;6.054;2023-08-07T03:41:11;100065.81;;;12.32;100.00
59825;BME280;45703;50.898;6.054;2023-08-07T03:43:37;100061.84;;;12.35;100.00
59825;BME280;45703;50.898;6.054;2023-08-07T03:46:02;100059.66;;;12.32;100.00
59825;BME280;45703;50.898;6.054;2023-08-07T03:48:27;100060.59;;;12.26;100.00
59825;BME280;45703;50.898;6.054;2023-08-07T03:50:53;100067.44;;;12.33;100.00
59825;BME280;45703;50.898;6.054;2023-08-07T03:53:26;100060.34;;;12.27;100.00
59825;BME280;45703;50.898;6.054;2023-08-07T03:55:51;100059.31;;;12.28;100.00
59825;BME280;45703;50.898;6.054;2023-08-07T03:58:17;100048.13;;;12.20;100.00
59825;BME280;45703;50.898;6.054;2023-08-07T04:00:42;100062.94;;;12.22;100.00
59825;BME280;45703;50.898;6.054;2023-08-07T04:03:08;100062.09;;;12.22;100.00
59825;BME280;45703;50.898;6.054;2023-08-07T04:05:33;100065.13;;;12.25;100.00
59825;BME280;45703;50.898;6.054;2023-08-07T04:07:59;100072.13;;;12.26;100.00
59825;BME280;45703;50.898;6.054;2023-08-07T04:10:24;100055.38;;;12.19;100.00
59825;BME280;45703;50.898;6.054;2023-08-07T04:12:50;100062.69;;;12.24;100.00
59825;BME280;45703;50.898;6.054;2023-08-07T04:15:15;100066.75;;;12.26;100.00
59825;BME280;45703;50.898;6.054;2023-08-07T04:17:41;100063.50;;;12.24;100.00
59825;BME280;45703;50.898;6.054;2023-08-07T04:20:07;100070.97;;;12.22;100.00
59825;BME280;45703;50.898;6.054;2023-08-07T04:22:33;100072.59;;;12.23;100.00
59825;BME280;45703;50.898;6.054;2023-08-07T04:24:59;100078.72;;;12.24;100.00
59825;BME280;45703;50.898;6.054;2023-08-07T04:27:25;100078.41;;;12.20;100.00
59825;BME280;45703;50.898;6.054;2023-08-07T04:29:51;100068.75;;;12.19;100.00
59825;BME280;45703;50.898;6.054;2023-08-07T04:32:17;100075.25;;;12.23;100.00
59825;BME280;45703;50.898;6.054;2023-08-07T04:34:42;100074.22;;;12.24;100.00
59825;BME280;45703;50.898;6.054;2023-08-07T04:37:07;100071.19;;;12.21;100.00
59825;BME280;45703;50.898;6.054;2023-08-07T04:39:33;100079.47;;;12.19;100.00
59825;BME280;45703;50.898;6.054;2023-08-07T04:41:58;100070.59;;;12.19;100.00
59825;BME280;45703;50.898;6.054;2023-08-07T04:44:23;100078.97;;;12.22;100.00
59825;BME280;45703;50.898;6.054;2023-08-07T04:46:50;100079.09;;;12.27;100.00
59825;BME280;45703;50.898;6.054;2023-08-07T04:49:18;100083.97;;;12.30;100.00
59825;BME280;45703;50.898;6.054;2023-08-07T04:51:43;100090.72;;;12.33;100.00
59825;BME280;45703;50.898;6.054;2023-08-07T04:54:09;100085.13;;;12.34;100.00
59825;BME280;45703;50.898;6.054;2023-08-07T04:56:37;100078.97;;;12.34;100.00
59825;BME280;45703;50.898;6.054;2023-08-07T04:59:07;100075.47;;;12.33;100.00
59825;BME280;45703;50.898;6.054;2023-08-07T05:01:32;100083.28;;;12.35;100.00
59825;BME280;45703;50.898;6.054;2023-08-07T05:03:58;100083.19;;;12.30;100.00
59825;BME280;45703;50.898;6.054;2023-08-07T05:06:25;100083.03;;;12.36;100.00
59825;BME280;45703;50.898;6.054;2023-08-07T05:08:51;100072.13;;;12.26;100.00
59825;BME280;45703;50.898;6.054;2023-08-07T05:11:16;100089.78;;;12.39;100.00
59825;BME280;45703;50.898;6.054;2023-08-07T05:13:42;100090.47;;;12.34;100.00
59825;BME280;45703;50.898;6.054;2023-08-07T05:16:09;100095.13;;;12.39;100.00
59825;BME280;45703;50.898;6.054;2023-08-07T05:18:35;100094.66;;;12.42;99.79
59825;BME280;45703;50.898;6.054;2023-08-07T05:21:00;100103.03;;;12.45;99.54
59825;BME280;45703;50.898;6.054;2023-08-07T05:23:26;100101.88;;;12.41;99.49
59825;BME280;45703;50.898;6.054;2023-08-07T05:25:56;100097.56;;;12.40;98.26
59825;BME280;45703;50.898;6.054;2023-08-07T05:28:28;100087.59;;;12.36;98.48
59825;BME280;45703;50.898;6.054;2023-08-07T05:30:56;100094.88;;;12.40;98.70
59825;BME280;45703;50.898;6.054;2023-08-07T05:33:22;100104.66;;;12.46;98.65
59825;BME280;45703;50.898;6.054;2023-08-07T05:35:47;100111.97;;;12.51;98.95
59825;BME280;45703;50.898;6.054;2023-08-07T05:38:15;100125.94;;;12.53;98.06
59825;BME280;45703;50.898;6.054;2023-08-07T05:40:40;100106.06;;;12.37;98.82
59825;BME280;45703;50.898;6.054;2023-08-07T05:43:06;100115.25;;;12.41;98.97
59825;BME280;45703;50.898;6.054;2023-08-07T05:45:33;100104.44;;;12.36;99.16
59825;BME280;45703;50.898;6.054;2023-08-07T05:47:59;100114.19;;;12.42;98.91
59825;BME280;45703;50.898;6.054;2023-08-07T05:50:26;100123.16;;;12.48;98.84
59825;BME280;45703;50.898;6.054;2023-08-07T05:52:54;100123.06;;;12.54;98.81
59825;BME280;45703;50.898;6.054;2023-08-07T05:55:20;100112.25;;;12.38;98.96
59825;BME280;45703;50.898;6.054;2023-08-07T05:57:45;100129.94;;;12.39;98.72
59825;BME280;45703;50.898;6.054;2023-08-07T06:00:11;100145.84;;;12.45;99.39
59825;BME280;45703;50.898;6.054;2023-08-07T06:02:44;100135.50;;;12.37;99.63
59825;BME280;45703;50.898;6.054;2023-08-07T06:05:12;100149.59;;;12.44;100.00
59825;BME280;45703;50.898;6.054;2023-08-07T06:07:39;100125.28;;;12.34;100.00
59825;BME280;45703;50.898;6.054;2023-08-07T06:10:06;100141.91;;;12.36;100.00
59825;BME280;45703;50.898;6.054;2023-08-07T06:12:34;100148.31;;;12.35;100.00
59825;BME280;45703;50.898;6.054;2023-08-07T06:14:59;100142.38;;;12.33;100.00
59825;BME280;45703;50.898;6.054;2023-08-07T06:17:29;100135.78;;;12.24;100.00
59825;BME280;45703;50.898;6.054;2023-08-07T06:19:57;100148.44;;;12.40;100.00
59825;BME280;45703;50.898;6.054;2023-08-07T06:22:23;100155.28;;;12.48;100.00
59825;BME280;45703;50.898;6.054;2023-08-07T06:24:48;100155.53;;;12.46;100.00
59825;BME280;45703;50.898;6.054;2023-08-07T06:27:14;100142.28;;;12.40;100.00
59825;BME280;45703;50.898;6.054;2023-08-07T06:29:44;100152.84;;;12.46;100.00
59825;BME280;45703;50.898;6.054;2023-08-07T06:32:10;100147.00;;;12.49;100.00
59825;BME280;45703;50.898;6.054;2023-08-07T06:34:40;100135.63;;;12.42;100.00
59825;BME280;45703;50.898;6.054;2023-08-07T06:37:06;100149.25;;;12.52;100.00
59825;BME280;45703;50.898;6.054;2023-08-07T06:39:36;100155.72;;;12.68;99.71
59825;BME280;45703;50.898;6.054;2023-08-07T06:42:15;100137.69;;;12.63;99.69
59825;BME280;45703;50.898;6.054;2023-08-07T06:44:42;100146.50;;;12.75;100.00
59825;BME280;45703;50.898;6.054;2023-08-07T06:47:08;100148.13;;;12.76;100.00
59825;BME280;45703;50.898;6.054;2023-08-07T06:49:36;100159.16;;;12.91;99.09
59825;BME280;45703;50.898;6.054;2023-08-07T06:52:02;100171.31;;;12.94;98.77
59825;BME280;45703;50.898;6.054;2023-08-07T06:54:30;100150.66;;;12.94;98.17
59825;BME280;45703;50.898;6.054;2023-08-07T06:56:55;100171.13;;;13.00;98.29
59825;BME280;45703;50.898;6.054;2023-08-07T06:59:20;100166.13;;;13.03;98.21
59825;BME280;45703;50.898;6.054;2023-08-07T07:01:46;100150.75;;;12.99;97.94
59825;BME280;45703;50.898;6.054;2023-08-07T07:04:11;100161.91;;;13.07;97.38
59825;BME280;45703;50.898;6.054;2023-08-07T07:06:37;100158.75;;;13.10;97.63
59825;BME280;45703;50.898;6.054;2023-08-07T07:09:03;100178.53;;;13.21;97.60
59825;BME280;45703;50.898;6.054;2023-08-07T07:11:28;100170.16;;;13.17;97.62
59825;BME280;45703;50.898;6.054;2023-08-07T07:13:56;100185.06;;;13.25;97.15
59825;BME280;45703;50.898;6.054;2023-08-07T07:16:21;100177.66;;;13.32;97.28
59825;BME280;45703;50.898;6.054;2023-08-07T07:18:48;100181.28;;;13.37;97.38
59825;BME280;45703;50.898;6.054;2023-08-07T07:21:17;100175.66;;;13.39;97.07
59825;BME280;45703;50.898;6.054;2023-08-07T07:23:45;100174.84;;;13.38;96.32
59825;BME280;45703;50.898;6.054;2023-08-07T07:26:11;100195.91;;;13.46;96.70
59825;BME280;45703;50.898;6.054;2023-08-07T07:28:36;100199.25;;;13.53;96.52
59825;BME280;45703;50.898;6.054;2023-08-07T07:31:01;100184.69;;;13.49;96.78
59825;BME280;45703;50.898;6.054;2023-08-07T07:33:28;100185.13;;;13.58;96.51
59825;BME280;45703;50.898;6.054;2023-08-07T07:35:54;100197.66;;;13.69;96.21
59825;BME280;45703;50.898;6.054;2023-08-07T07:38:20;100216.03;;;13.77;95.98
59825;BME280;45703;50.898;6.054;2023-08-07T07:40:45;100214.00;;;13.84;95.93
59825;BME280;45703;50.898;6.054;2023-08-07T07:43:11;100212.97;;;13.85;96.03
59825;BME280;45703;50.898;6.054;2023-08-07T07:45:36;100225.47;;;13.96;95.76
59825;BME280;45703;50.898;6.054;2023-08-07T07:48:02;100214.38;;;14.04;95.73
59825;BME280;45703;50.898;6.054;2023-08-07T07:50:28;100216.06;;;14.10;95.54
59825;BME280;45703;50.898;6.054;2023-08-07T07:52:54;100221.88;;;14.18;94.71
59825;BME280;45703;50.898;6.054;2023-08-07T07:55:19;100210.97;;;14.25;94.81
59825;BME280;45703;50.898;6.054;2023-08-07T07:57:45;100218.31;;;14.29;94.39
59825;BME280;45703;50.898;6.054;2023-08-07T08:00:11;100222.25;;;14.43;94.69
59825;BME280;45703;50.898;6.054;2023-08-07T08:02:38;100226.94;;;14.52;95.71
59825;BME280;45703;50.898;6.054;2023-08-07T08:05:07;100237.03;;;14.62;93.11
59825;BME280;45703;50.898;6.054;2023-08-07T08:07:33;100231.81;;;14.72;94.51
59825;BME280;45703;50.898;6.054;2023-08-07T08:10:00;100231.13;;;14.81;92.40
59825;BME280;45703;50.898;6.054;2023-08-07T08:12:26;100226.31;;;14.83;94.15
59825;BME280;45703;50.898;6.054;2023-08-07T08:14:51;100226.28;;;15.00;93.58
59825;BME280;45703;50.898;6.054;2023-08-07T08:17:16;100230.53;;;15.17;91.81
59825;BME280;45703;50.898;6.054;2023-08-07T08:19:44;100230.09;;;15.25;92.39
59825;BME280;45703;50.898;6.054;2023-08-07T08:22:10;100230.00;;;15.37;89.13
59825;BME280;45703;50.898;6.054;2023-08-07T08:24:35;100236.78;;;15.44;89.03
59825;BME280;45703;50.898;6.054;2023-08-07T08:27:01;100246.84;;;15.54;89.99
59825;BME280;45703;50.898;6.054;2023-08-07T08:29:28;100239.66;;;15.59;88.94
59825;BME280;45703;50.898;6.054;2023-08-07T08:31:56;100236.19;;;15.64;88.64
59825;BME280;45703;50.898;6.054;2023-08-07T08:34:21;100227.28;;;15.58;90.02
59825;BME280;45703;50.898;6.054;2023-08-07T08:36:47;100249.00;;;15.78;87.56
59825;BME280;45703;50.898;6.054;2023-08-07T08:39:13;100243.19;;;15.91;86.98
59825;BME280;45703;50.898;6.054;2023-08-07T08:41:39;100247.03;;;16.00;85.18
59825;BME280;45703;50.898;6.054;2023-08-07T08:44:07;100254.41;;;16.09;86.34
59825;BME280;45703;50.898;6.054;2023-08-07T08:46:33;100259.84;;;16.14;84.12
59825;BME280;45703;50.898;6.054;2023-08-07T08:49:01;100247.25;;;16.25;84.89
59825;BME280;45703;50.898;6.054;2023-08-07T08:51:29;100261.28;;;16.27;83.82
59825;BME280;45703;50.898;6.054;2023-08-07T08:53:55;100266.13;;;16.25;81.13
59825;BME280;45703;50.898;6.054;2023-08-07T08:56:22;100260.22;;;16.28;80.85
59825;BME280;45703;50.898;6.054;2023-08-07T08:58:51;100257.25;;;16.29;82.46
59825;BME280;45703;50.898;6.054;2023-08-07T09:01:20;100264.75;;;16.22;82.28
59825;BME280;45703;50.898;6.054;2023-08-07T09:04:06;100261.78;;;16.19;82.67
59825;BME280;45703;50.898;6.054;2023-08-07T09:06:32;100263.94;;;16.22;82.56
59825;BME280;45703;50.898;6.054;2023-08-07T09:08:58;100265.22;;;16.14;82.80
59825;BME280;45703;50.898;6.054;2023-08-07T09:11:25;100280.28;;;16.10;82.19
59825;BME280;45703;50.898;6.054;2023-08-07T09:13:52;100256.19;;;15.99;82.49
59825;BME280;45703;50.898;6.054;2023-08-07T09:16:19;100278.03;;;16.02;82.52
59825;BME280;45703;50.898;6.054;2023-08-07T09:18:44;100275.31;;;15.97;83.06
59825;BME280;45703;50.898;6.054;2023-08-07T09:21:13;100270.16;;;15.96;84.13
59825;BME280;45703;50.898;6.054;2023-08-07T09:23:41;100272.84;;;15.96;84.84
59825;BME280;45703;50.898;6.054;2023-08-07T09:26:07;100278.31;;;16.06;85.65
59825;BME280;45703;50.898;6.054;2023-08-07T09:28:33;100287.63;;;16.20;83.65
59825;BME280;45703;50.898;6.054;2023-08-07T09:30:59;100284.63;;;16.16;81.55
59825;BME280;45703;50.898;6.054;2023-08-07T09:33:26;100281.94;;;16.16;83.42
59825;BME280;45703;50.898;6.054;2023-08-07T09:35:52;100300.00;;;16.16;82.26
59825;BME280;45703;50.898;6.054;2023-08-07T09:38:17;100294.81;;;16.09;82.30
59825;BME280;45703;50.898;6.054;2023-08-07T09:40:43;100298.06;;;16.11;81.53
59825;BME280;45703;50.898;6.054;2023-08-07T09:43:08;100295.72;;;16.20;82.76
59825;BME280;45703;50.898;6.054;2023-08-07T09:45:35;100279.63;;;16.30;81.46
59825;BME280;45703;50.898;6.054;2023-08-07T09:48:05;100279.78;;;16.45;82.76
59825;BME280;45703;50.898;6.054;2023-08-07T09:50:34;100278.72;;;16.46;80.58
59825;BME280;45703;50.898;6.054;2023-08-07T09:53:02;100288.44;;;16.52;79.14
59825;BME280;45703;50.898;6.054;2023-08-07T09:55:28;100304.31;;;16.43;77.87
59825;BME280;45703;50.898;6.054;2023-08-07T09:57:53;100288.63;;;16.35;78.31
59825;BME280;45703;50.898;6.054;2023-08-07T10:00:19;100293.63;;;16.27;78.35
59825;BME280;45703;50.898;6.054;2023-08-07T10:02:46;100292.03;;;16.31;79.46
59825;BME280;45703;50.898;6.054;2023-08-07T10:05:13;100293.78;;;16.42;78.21
59825;BME280;45703;50.898;6.054;2023-08-07T10:07:39;100288.97;;;16.49;79.85
59825;BME280;45703;50.898;6.054;2023-08-07T10:10:06;100287.16;;;16.59;79.61
59825;BME280;45703;50.898;6.054;2023-08-07T10:12:32;100276.72;;;16.68;79.68
59825;BME280;45703;50.898;6.054;2023-08-07T10:14:59;100300.22;;;16.77;77.19
59825;BME280;45703;50.898;6.054;2023-08-07T10:17:25;100295.91;;;16.76;75.37
59825;BME280;45703;50.898;6.054;2023-08-07T10:19:51;100306.84;;;16.96;76.42
59825;BME280;45703;50.898;6.054;2023-08-07T10:22:19;100285.63;;;17.10;75.61
59825;BME280;45703;50.898;6.054;2023-08-07T10:25:01;100301.59;;;17.26;76.29
59825;BME280;45703;50.898;6.054;2023-08-07T10:27:43;100294.38;;;17.37;72.67
59825;BME280;45703;50.898;6.054;2023-08-07T10:30:14;100298.72;;;17.42;71.35
59825;BME280;45703;50.898;6.054;2023-08-07T10:32:42;100307.38;;;17.49;72.90
59825;BME280;45703;50.898;6.054;2023-08-07T10:35:08;100300.41;;;17.58;68.25
59825;BME280;45703;50.898;6.054;2023-08-07T10:37:45;100289.66;;;17.63;70.91
59825;BME280;45703;50.898;6.054;2023-08-07T10:40:14;100294.53;;;17.71;70.10
59825;BME280;45703;50.898;6.054;2023-08-07T10:42:57;100313.69;;;17.75;69.81
59825;BME280;45703;50.898;6.054;2023-08-07T10:45:28;100305.56;;;17.65;69.06
59825;BME280;45703;50.898;6.054;2023-08-07T10:48:12;100306.63;;;17.54;69.34
59825;BME280;45703;50.898;6.054;2023-08-07T10:51:14;100306.91;;;17.62;72.75
59825;BME280;45703;50.898;6.054;2023-08-07T10:53:59;100314.22;;;17.72;71.43
59825;BME280;45703;50.898;6.054;2023-08-07T10:56:36;100300.78;;;17.87;71.84
59825;BME280;45703;50.898;6.054;2023-08-07T10:59:09;100309.72;;;18.07;72.00
59825;BME280;45703;50.898;6.054;2023-08-07T11:04:10;100308.16;;;18.41;69.58
59825;BME280;45703;50.898;6.054;2023-08-07T11:06:37;100289.53;;;18.45;70.08
59825;BME280;45703;50.898;6.054;2023-08-07T11:09:08;100298.16;;;18.52;70.01
59825;BME280;45703;50.898;6.054;2023-08-07T11:11:38;100296.25;;;18.52;70.47
59825;BME280;45703;50.898;6.054;2023-08-07T11:14:09;100312.22;;;18.44;70.04
59825;BME280;45703;50.898;6.054;2023-08-07T11:16:35;100313.28;;;18.28;69.19
59825;BME280;45703;50.898;6.054;2023-08-07T11:19:01;100327.28;;;18.15;70.29
59825;BME280;45703;50.898;6.054;2023-08-07T11:21:26;100315.66;;;18.09;70.86
59825;BME280;45703;50.898;6.054;2023-08-07T11:23:52;100304.84;;;18.04;71.58
59825;BME280;45703;50.898;6.054;2023-08-07T11:26:18;100310.00;;;18.16;72.23
59825;BME280;45703;50.898;6.054;2023-08-07T11:28:47;100307.34;;;18.26;72.36
59825;BME280;45703;50.898;6.054;2023-08-07T11:31:12;100323.31;;;18.32;68.05
59825;BME280;45703;50.898;6.054;2023-08-07T11:33:38;100314.09;;;18.43;70.44
59825;BME280;45703;50.898;6.054;2023-08-07T11:36:10;100307.06;;;18.57;72.22
59825;BME280;45703;50.898;6.054;2023-08-07T11:38:41;100307.09;;;18.67;69.98
59825;BME280;45703;50.898;6.054;2023-08-07T11:41:10;100310.31;;;18.69;70.50
59825;BME280;45703;50.898;6.054;2023-08-07T11:43:37;100304.66;;;18.51;68.32
59825;BME280;45703;50.898;6.054;2023-08-07T11:46:07;100310.28;;;18.24;69.16
59825;BME280;45703;50.898;6.054;2023-08-07T11:48:38;100310.84;;;18.16;72.10
59825;BME280;45703;50.898;6.054;2023-08-07T11:51:07;100316.16;;;17.91;70.96
59825;BME280;45703;50.898;6.054;2023-08-07T11:53:40;100329.66;;;17.81;70.03
59825;BME280;45703;50.898;6.054;2023-08-07T11:56:07;100323.19;;;17.82;72.18
59825;BME280;45703;50.898;6.054;2023-08-07T11:58:39;100302.63;;;17.76;72.00
59825;BME280;45703;50.898;6.054;2023-08-07T12:01:12;100308.63;;;18.03;72.85
59825;BME280;45703;50.898;6.054;2023-08-07T12:03:42;100318.94;;;18.16;69.74
59825;BME280;45703;50.898;6.054;2023-08-07T12:06:08;100321.94;;;18.35;70.26
59825;BME280;45703;50.898;6.054;2023-08-07T12:08:38;100318.44;;;18.49;71.23
59825;BME280;45703;50.898;6.054;2023-08-07T12:11:06;100317.34;;;18.55;69.59
59825;BME280;45703;50.898;6.054;2023-08-07T12:13:37;100303.84;;;18.40;68.64
59825;BME280;45703;50.898;6.054;2023-08-07T12:16:06;100323.59;;;18.46;70.26
59825;BME280;45703;50.898;6.054;2023-08-07T12:18:32;100321.41;;;18.38;68.72
59825;BME280;45703;50.898;6.054;2023-08-07T12:20:59;100310.88;;;18.31;67.47
59825;BME280;45703;50.898;6.054;2023-08-07T12:23:28;100320.88;;;18.41;69.10
59825;BME280;45703;50.898;6.054;2023-08-07T12:25:54;100301.13;;;18.35;69.07
59825;BME280;45703;50.898;6.054;2023-08-07T12:28:19;100329.25;;;18.29;68.79
59825;BME280;45703;50.898;6.054;2023-08-07T12:30:46;100322.72;;;18.15;69.79
59825;BME280;45703;50.898;6.054;2023-08-07T12:33:14;100314.56;;;18.10;71.24
59825;BME280;45703;50.898;6.054;2023-08-07T12:35:40;100315.94;;;18.18;71.56
59825;BME280;45703;50.898;6.054;2023-08-07T12:38:07;100302.47;;;18.33;72.28
59825;BME280;45703;50.898;6.054;2023-08-07T12:40:35;100323.56;;;18.61;68.39
59825;BME280;45703;50.898;6.054;2023-08-07T12:43:02;100313.56;;;18.76;66.38
59825;BME280;45703;50.898;6.054;2023-08-07T12:45:28;100300.31;;;18.70;65.90
59825;BME280;45703;50.898;6.054;2023-08-07T12:47:53;100291.91;;;18.76;66.62